| Date | Temp | Humidity | Rainfall | Dew Point | Wind Direction | Wind Speed | Wind Pressure | Condition | Visibility |
|---|---|---|---|---|---|---|---|---|---|
| 2025-04-20 12:59:31 | 33 | 70 | 0 | 26 | 320 | 15.2 | 1008 | Cloudy | 20 KM |
| 2025-04-20 12:01:08 | 33 | 52 | 0 | 22 | 320 | 5.7 | 1009 | Partly Cloudy (Day) | 20 KM |
| 2025-04-20 11:00:50 | 32 | 62 | 0 | 24 | 180 | 5.7 | 1009 | Cloudy | 20 KM |
| 2025-04-20 10:01:56 | 31 | 71 | 0.0 | 25 | 300 | 4 | 1010 | Cloudy | 20 km |
| 2025-04-20 09:10:29 | 30 | 79 | 0.0 | 25 | 190 | 10 | 1010 | Partly Cloudy (Day) | 20 km |
| 2025-04-20 08:01:37 | 28 | 85 | 0.00 | 25 | 210 | 11.4 | 1010 | Cloudy | 15 KM |
| 2025-04-20 07:00:49 | 26 | 93 | 0.00 | 25 | 220 | 9.5 | 1009 | Cloudy | 15 KM |
| 2025-04-20 06:31:02 | 26 | 93 | 0.0 | 25 | 230 | 7.6 | 1008 | Cloudy | 10 KM |
| 2025-04-20 06:30:26 | 26 | 95 | 0.00 | 25 | 170 | 3.8 | 1007 | Cloudy | 10 KM |
| 2025-04-20 05:00:55 | 26 | 95 | 0.00 | 25 | 170 | 3.8 | 1007 | Cloudy | 10 KM |
| 2025-04-20 03:01:47 | 27 | 90 | 0.00 | 26 | 190 | 5.7 | 1007 | Cloudy | 10 KM |
| 2025-04-20 02:11:44 | 27 | 93 | 26 | 120 | 1.9 | 1007 | Partly Cloudy (Night) | 10KM | |
| 2025-04-20 00:59:07 | 27 | 92 | 26 | 140 | 3.8 | 1008 | Partly Cloudy (Night) | 10KM | |
| 2025-04-20 00:03:45 | 28 | 91 | 26 | 190 | 7.6 | 1008 | Partly Cloudy (Night) | 10KM | |
| 2025-04-19 23:01:16 | 29 | 79 | 25 | 060 | 9.5 | 1009 | Partly Cloudy (Night) | 10KM | |
| 2025-04-19 22:00:21 | 30 | 79 | 28 | 060 | 9.5 | 1009 | Partly Cloudy (Night) | 10KM | |
| 2025-04-19 20:58:53 | 30 | 77 | 25 | 360 | 7.6 | 1008 | Partly Cloudy (Night) | 10KM | |
| 2025-04-19 20:03:30 | 30 | 78 | 25 | 360 | 7.6 | 1008 | Partly Cloudy (Night) | 10KM | |
| 2025-04-19 18:58:17 | 30 | 76 | 26 | 010 | 9.5 | 1007 | Partly Cloudy (Night) | 10KM | |
| 2025-04-19 17:58:54 | 31 | 77 | 26 | 360 | 15.2 | 1006 | Partly Cloudy (Day) | 15KM | |
| 2025-04-19 17:00:32 | 31 | 69 | 0.0 | 25 | 310 | 17.1 | 1006 | Partly Cloudy (Day) | 20KM |
| 2025-04-19 15:58:08 | 32 | 69 | 0.0 | 25 | 320 | 15.2 | 1006 | Partly Cloudy (Day) | 20KM |
| 2025-04-19 15:03:11 | 32 | 68 | 0.0 | 26 | 350 | 17.1 | 1007 | Partly Cloudy (Day) | 20KM |
| 2025-04-19 14:01:16 | 32 | 69 | 0.0 | 26 | 340 | 17.1 | 1008 | Partly Cloudy (Day) | 20KM |
| 2025-04-19 13:00:00 | 33 | 61 | 0.00 | 24 | 020 | 11.4 | 1009 | Partly Cloudy (Day) | 20 km |